Time;durP1;ratioP1;P1;durP2;ratioP2;P2;SDS_P1;SDS_P2;PMS_P1;PMS_P2;Temp;Humidity;BMP_temperature;BMP_pressure;BME280_temperature;BME280_humidity;BME280_pressure;Samples;Min_cycle;Max_cycle;Signal;HPM_P1;HPM_P2
2022/06/11 00:01:44;;;;;;;6.93;2.42;;;;;;;;;;4880558;29;20108;-62
2022/06/11 00:04:17;;;;;;;7.70;2.33;;;;;;;;;;4880214;29;20037;-62
2022/06/11 00:06:47;;;;;;;7.68;2.90;;;;;;;;;;4879822;29;20040;-63
2022/06/11 00:09:13;;;;;;;9.20;2.70;;;;;;;;;;4879101;29;20669;-63
2022/06/11 00:11:38;;;;;;;7.03;2.63;;;;;;;;;;4864176;29;20164;-62
2022/06/11 00:14:05;;;;;;;7.38;2.58;;;;;;;;;;4863253;29;20128;-62
2022/06/11 00:16:32;;;;;;;8.80;2.95;;;;;;;;;;4845437;29;20045;-62
2022/06/11 00:18:59;;;;;;;6.57;2.50;;;;;;;;;;4844857;29;20041;-62
2022/06/11 00:21:26;;;;;;;6.38;2.42;;;;;;;;;;4877971;29;20041;-62
2022/06/11 00:23:52;;;;;;;7.25;2.60;;;;;;;;;;4880406;29;20061;-62
2022/06/11 00:26:20;;;;;;;8.00;2.80;;;;;;;;;;4879170;29;20053;-62
2022/06/11 00:28:46;;;;;;;7.43;2.88;;;;;;;;;;4880641;29;20043;-62
2022/06/11 00:31:11;;;;;;;4.13;2.47;;;;;;;;;;4877234;29;20120;-62
2022/06/11 00:33:38;;;;;;;6.25;2.60;;;;;;;;;;4880590;29;20037;-62
2022/06/11 00:36:05;;;;;;;6.90;2.83;;;;;;;;;;4877416;29;20037;-62
2022/06/11 00:38:31;;;;;;;6.82;3.00;;;;;;;;;;4880444;29;20394;-62
2022/06/11 00:40:57;;;;;;;5.07;2.53;;;;;;;;;;4878599;29;20131;-62
2022/06/11 00:43:25;;;;;;;7.40;2.85;;;;;;;;;;4880178;29;20557;-62
2022/06/11 00:45:50;;;;;;;9.40;3.17;;;;;;;;;;4878642;29;20124;-62
2022/06/11 00:48:22;;;;;;;4.72;2.90;;;;;;;;;;4879161;29;20124;-62
2022/06/11 00:50:51;;;;;;;8.23;3.08;;;;;;;;;;4878094;29;20116;-62
2022/06/11 00:53:28;;;;;;;9.27;3.15;;;;;;;;;;4879488;29;20096;-62
2022/06/11 00:55:53;;;;;;;7.93;3.03;;;;;;;;;;4879555;29;20036;-62
2022/06/11 00:58:23;;;;;;;6.75;3.05;;;;;;;;;;4879398;29;20040;-62
2022/06/11 01:00:57;;;;;;;7.47;3.08;;;;;;;;;;4848401;29;20045;-62
2022/06/11 01:03:26;;;;;;;7.90;2.65;;;;;;;;;;4866501;29;20043;-61
2022/06/11 01:06:17;;;;;;;9.43;2.80;;;;;;;;;;4879978;29;20033;-62
2022/06/11 01:08:54;;;;;;;5.38;2.70;;;;;;;;;;4878494;29;20146;-62
2022/06/11 01:11:51;;;;;;;8.63;3.03;;;;;;;;;;4879486;29;20029;-62
2022/06/11 01:14:16;;;;;;;7.18;3.05;;;;;;;;;;4877468;29;20121;-62
2022/06/11 01:16:45;;;;;;;6.32;2.90;;;;;;;;;;4879845;29;20470;-62
2022/06/11 01:19:29;;;;;;;6.25;2.80;;;;;;;;;;4878350;29;20070;-62
2022/06/11 01:22:26;;;;;;;9.13;2.90;;;;;;;;;;4879289;29;20102;-63
2022/06/11 01:25:18;;;;;;;7.07;3.05;;;;;;;;;;4878757;29;20166;-63
2022/06/11 01:28:21;;;;;;;9.00;2.80;;;;;;;;;;4878471;29;20081;-63
2022/06/11 01:30:50;;;;;;;5.03;2.70;;;;;;;;;;4878184;29;20044;-62
2022/06/11 01:33:34;;;;;;;8.30;3.20;;;;;;;;;;4895379;29;20100;-62
2022/06/11 01:36:11;;;;;;;6.13;3.03;;;;;;;;;;4878600;29;20029;-63
2022/06/11 01:39:03;;;;;;;5.30;2.72;;;;;;;;;;4879132;29;20041;-62
2022/06/11 01:41:31;;;;;;;8.20;2.90;;;;;;;;;;4879568;29;20143;-62
2022/06/11 01:44:03;;;;;;;8.38;3.05;;;;;;;;;;4877294;29;20082;-62
2022/06/11 01:46:42;;;;;;;8.25;2.92;;;;;;;;;;4879382;29;20033;-62
2022/06/11 01:49:19;;;;;;;8.50;3.10;;;;;;;;;;4877123;29;20037;-62
2022/06/11 01:52:07;;;;;;;7.55;2.83;;;;;;;;;;4878953;29;20052;-62
2022/06/11 01:54:38;;;;;;;7.10;2.95;;;;;;;;;;4878436;29;20048;-63
2022/06/11 01:57:15;;;;;;;7.10;2.95;;;;;;;;;;4877482;29;20474;-62
2022/06/11 02:00:20;;;;;;;8.15;3.08;;;;;;;;;;4860818;29;20040;-62
2022/06/11 02:02:54;;;;;;;6.75;3.20;;;;;;;;;;4803090;29;20122;-62
2022/06/11 02:05:25;;;;;;;8.18;3.00;;;;;;;;;;4867446;29;20717;-63
2022/06/11 02:08:06;;;;;;;6.88;2.85;;;;;;;;;;4877547;29;20037;-63
2022/06/11 02:10:36;;;;;;;5.30;2.85;;;;;;;;;;4878243;29;20438;-64
2022/06/11 02:13:12;;;;;;;7.65;3.17;;;;;;;;;;4877812;29;20033;-63
2022/06/11 02:15:57;;;;;;;8.60;3.00;;;;;;;;;;4878008;29;20072;-63
2022/06/11 02:18:25;;;;;;;7.35;3.22;;;;;;;;;;4877800;29;20390;-62
2022/06/11 02:21:02;;;;;;;7.68;3.10;;;;;;;;;;4842973;29;20041;-61
2022/06/11 02:23:35;;;;;;;6.47;3.40;;;;;;;;;;4853139;29;20060;-62
2022/06/11 02:26:05;;;;;;;5.85;3.25;;;;;;;;;;4877321;29;20395;-62
2022/06/11 02:28:35;;;;;;;7.45;3.10;;;;;;;;;;4877585;29;20049;-62
2022/06/11 02:31:05;;;;;;;5.95;3.05;;;;;;;;;;4877191;29;20049;-63
2022/06/11 02:33:33;;;;;;;6.95;3.30;;;;;;;;;;4877809;29;20155;-61
2022/06/11 02:36:05;;;;;;;8.82;3.17;;;;;;;;;;4878632;29;20482;-62
2022/06/11 02:38:30;;;;;;;7.57;3.08;;;;;;;;;;4876522;29;20041;-62
2022/06/11 02:41:01;;;;;;;9.70;3.40;;;;;;;;;;4878187;29;20033;-61
2022/06/11 02:43:28;;;;;;;5.57;3.20;;;;;;;;;;4876897;29;20065;-63
2022/06/11 02:45:54;;;;;;;7.75;4.00;;;;;;;;;;4877959;29;20038;-62
2022/06/11 02:48:20;;;;;;;9.50;3.85;;;;;;;;;;4875757;29;20528;-62
2022/06/11 02:50:49;;;;;;;7.22;3.35;;;;;;;;;;4878102;29;20076;-62
2022/06/11 02:53:15;;;;;;;8.43;3.80;;;;;;;;;;4875504;29;20125;-63
2022/06/11 02:55:42;;;;;;;7.38;3.70;;;;;;;;;;4877981;29;20466;-62
2022/06/11 02:58:09;;;;;;;9.75;3.80;;;;;;;;;;4876588;29;20127;-63
2022/06/11 03:00:38;;;;;;;8.38;4.00;;;;;;;;;;4877868;29;20119;-63
2022/06/11 03:03:04;;;;;;;8.65;3.97;;;;;;;;;;4876565;29;20033;-64
2022/06/11 03:05:32;;;;;;;7.85;3.70;;;;;;;;;;4877869;29;20033;-62
2022/06/11 03:07:59;;;;;;;9.52;4.30;;;;;;;;;;4875667;29;20422;-62
2022/06/11 03:10:26;;;;;;;8.50;3.80;;;;;;;;;;4876899;29;20162;-63
2022/06/11 03:12:52;;;;;;;8.00;3.90;;;;;;;;;;4876726;29;20518;-62
2022/06/11 03:15:19;;;;;;;8.85;4.07;;;;;;;;;;4881539;29;20037;-64
2022/06/11 03:17:50;;;;;;;10.45;4.05;;;;;;;;;;4883844;29;20045;-62
2022/06/11 03:20:16;;;;;;;6.47;3.67;;;;;;;;;;4883787;29;20116;-63
2022/06/11 03:22:42;;;;;;;8.27;4.00;;;;;;;;;;4881527;29;20053;-62
2022/06/11 03:25:09;;;;;;;8.73;4.43;;;;;;;;;;4883726;29;20037;-63
2022/06/11 03:27:35;;;;;;;8.45;4.00;;;;;;;;;;4865497;29;20053;-63
2022/06/11 03:30:14;;;;;;;9.32;4.28;;;;;;;;;;4883970;29;20041;-62
2022/06/11 03:32:40;;;;;;;8.45;4.10;;;;;;;;;;4883234;29;20387;-62
2022/06/11 03:35:07;;;;;;;9.15;4.30;;;;;;;;;;4882888;29;20040;-63
2022/06/11 03:37:33;;;;;;;8.68;4.10;;;;;;;;;;4882334;29;20050;-61
2022/06/11 03:39:59;;;;;;;9.25;4.70;;;;;;;;;;4883624;29;20064;-63
2022/06/11 03:42:25;;;;;;;10.00;4.32;;;;;;;;;;4882727;29;20489;-62
2022/06/11 03:44:50;;;;;;;6.55;3.75;;;;;;;;;;4883043;29;20081;-63
2022/06/11 03:47:16;;;;;;;9.90;4.40;;;;;;;;;;4883362;29;20092;-62
2022/06/11 03:49:41;;;;;;;9.77;4.35;;;;;;;;;;4882360;29;20068;-63
2022/06/11 03:52:08;;;;;;;7.90;4.60;;;;;;;;;;4866543;29;20033;-63
2022/06/11 03:54:35;;;;;;;12.82;5.35;;;;;;;;;;4866365;29;20494;-63
2022/06/11 03:57:00;;;;;;;7.35;4.20;;;;;;;;;;4883545;29;20029;-63
2022/06/11 03:59:25;;;;;;;6.90;3.97;;;;;;;;;;4882999;29;20095;-63
2022/06/11 04:01:51;;;;;;;12.77;4.53;;;;;;;;;;4882935;29;20394;-63
2022/06/11 04:04:20;;;;;;;10.82;3.80;;;;;;;;;;4879880;29;20492;-63
2022/06/11 04:06:56;;;;;;;8.93;3.92;;;;;;;;;;4883539;29;20081;-62
2022/06/11 04:09:26;;;;;;;11.27;4.50;;;;;;;;;;4856130;29;20041;-63
2022/06/11 04:11:52;;;;;;;12.13;4.38;;;;;;;;;;4848670;29;20072;-63
2022/06/11 04:14:19;;;;;;;9.68;4.50;;;;;;;;;;4872511;29;20132;-63
2022/06/11 04:16:48;;;;;;;9.65;4.10;;;;;;;;;;4883532;29;20039;-63
2022/06/11 04:19:19;;;;;;;8.55;4.53;;;;;;;;;;4879470;29;20041;-63
2022/06/11 04:21:46;;;;;;;11.45;4.97;;;;;;;;;;4883616;29;20411;-62
2022/06/11 04:24:12;;;;;;;10.43;4.80;;;;;;;;;;4881951;29;20057;-62
2022/06/11 04:26:42;;;;;;;11.40;4.80;;;;;;;;;;4879996;29;20102;-63
2022/06/11 04:29:10;;;;;;;11.52;5.07;;;;;;;;;;4879764;29;20059;-63
2022/06/11 04:31:37;;;;;;;8.55;4.97;;;;;;;;;;4880902;29;20567;-63
2022/06/11 04:34:03;;;;;;;9.98;4.70;;;;;;;;;;4878818;29;20043;-63
2022/06/11 04:36:37;;;;;;;11.20;4.82;;;;;;;;;;4880334;29;20084;-62
2022/06/11 04:39:05;;;;;;;10.00;4.80;;;;;;;;;;4879990;29;20463;-62
2022/06/11 04:41:31;;;;;;;12.57;5.20;;;;;;;;;;4879837;29;20060;-62
2022/06/11 04:43:56;;;;;;;11.27;4.55;;;;;;;;;;4861200;29;20040;-62
2022/06/11 04:46:21;;;;;;;10.20;5.22;;;;;;;;;;4867933;29;20446;-63
2022/06/11 04:48:48;;;;;;;10.18;5.13;;;;;;;;;;4880551;29;20025;-61
2022/06/11 04:51:15;;;;;;;10.48;5.10;;;;;;;;;;4856857;29;20412;-62
2022/06/11 04:53:42;;;;;;;10.45;5.22;;;;;;;;;;4861696;29;20120;-62
2022/06/11 04:56:08;;;;;;;12.93;5.30;;;;;;;;;;4860309;29;20033;-63
2022/06/11 04:58:33;;;;;;;12.88;5.53;;;;;;;;;;4878987;29;20398;-62
2022/06/11 05:00:58;;;;;;;10.00;5.05;;;;;;;;;;4878337;29;20069;-62
2022/06/11 05:03:24;;;;;;;12.10;4.95;;;;;;;;;;4878466;29;20116;-62
2022/06/11 05:05:50;;;;;;;10.88;5.30;;;;;;;;;;4878926;29;20060;-62
2022/06/11 05:08:16;;;;;;;11.13;4.85;;;;;;;;;;4879076;29;20033;-62
2022/06/11 05:10:42;;;;;;;8.60;4.78;;;;;;;;;;4879328;29;20036;-62
2022/06/11 05:13:12;;;;;;;13.88;5.25;;;;;;;;;;4879512;29;20467;-63
2022/06/11 05:15:44;;;;;;;12.48;5.00;;;;;;;;;;4877176;29;20093;-62
2022/06/11 05:18:10;;;;;;;10.63;4.70;;;;;;;;;;4879120;29;20033;-64
2022/06/11 05:20:36;;;;;;;10.57;4.85;;;;;;;;;;4878741;29;20040;-63
2022/06/11 05:23:02;;;;;;;9.98;4.45;;;;;;;;;;4879163;29;20036;-63
2022/06/11 05:25:27;;;;;;;11.50;4.38;;;;;;;;;;4877580;29;20125;-62
2022/06/11 05:27:53;;;;;;;10.00;4.30;;;;;;;;;;4879835;29;20116;-62
2022/06/11 05:30:25;;;;;;;7.88;4.07;;;;;;;;;;4876508;29;20044;-62
2022/06/11 05:32:52;;;;;;;8.82;3.80;;;;;;;;;;4862424;29;20428;-62
2022/06/11 05:35:22;;;;;;;5.60;3.17;;;;;;;;;;4876977;29;20045;-62
2022/06/11 05:37:50;;;;;;;6.78;3.38;;;;;;;;;;4878912;29;20033;-62
2022/06/11 05:40:18;;;;;;;9.20;3.35;;;;;;;;;;4878739;29;20045;-62
2022/06/11 05:42:47;;;;;;;5.40;2.95;;;;;;;;;;4879247;29;20419;-62
2022/06/11 05:45:16;;;;;;;6.60;3.15;;;;;;;;;;4877576;29;20455;-62
2022/06/11 05:47:43;;;;;;;12.68;5.03;;;;;;;;;;4876732;29;20072;-62
2022/06/11 05:50:13;;;;;;;7.90;2.92;;;;;;;;;;4878221;29;20510;-62
2022/06/11 05:52:43;;;;;;;9.10;3.47;;;;;;;;;;4861552;29;20445;-63
2022/06/11 05:55:17;;;;;;;7.20;2.95;;;;;;;;;;4879204;29;20033;-62
2022/06/11 05:57:45;;;;;;;5.57;2.75;;;;;;;;;;4877088;29;20419;-62
2022/06/11 06:00:13;;;;;;;5.25;2.80;;;;;;;;;;4878266;29;20048;-62
2022/06/11 06:02:40;;;;;;;6.28;3.28;;;;;;;;;;4877963;29;20120;-63
2022/06/11 06:05:08;;;;;;;4.97;3.00;;;;;;;;;;4878002;29;20506;-62
2022/06/11 06:07:33;;;;;;;7.28;2.75;;;;;;;;;;4877102;29;20037;-62
2022/06/11 06:09:59;;;;;;;5.57;3.05;;;;;;;;;;4877611;29;20044;-62
2022/06/11 06:12:24;;;;;;;9.07;3.28;;;;;;;;;;4877065;29;20465;-62
2022/06/11 06:15:17;;;;;;;5.20;2.35;;;;;;;;;;4876884;29;20123;-62
2022/06/11 06:17:42;;;;;;;7.25;2.58;;;;;;;;;;4870280;29;20088;-62
2022/06/11 06:20:12;;;;;;;4.68;2.35;;;;;;;;;;4873290;29;20037;-62
2022/06/11 06:22:38;;;;;;;4.80;2.17;;;;;;;;;;4870112;29;20477;-62
2022/06/11 06:25:04;;;;;;;4.80;2.33;;;;;;;;;;4871440;29;20064;-62
2022/06/11 06:27:30;;;;;;;5.57;2.40;;;;;;;;;;4875509;29;20059;-62
2022/06/11 06:29:55;;;;;;;4.80;2.50;;;;;;;;;;4876666;29;20116;-62
2022/06/11 06:32:20;;;;;;;5.60;2.50;;;;;;;;;;4873911;29;20047;-63
2022/06/11 06:34:46;;;;;;;6.45;2.20;;;;;;;;;;4877913;29;20029;-63
2022/06/11 06:37:12;;;;;;;4.47;2.30;;;;;;;;;;4861379;29;20090;-62
2022/06/11 06:39:37;;;;;;;4.82;2.10;;;;;;;;;;4876202;29;20478;-63
2022/06/11 06:42:03;;;;;;;5.03;2.25;;;;;;;;;;4876867;29;20089;-62
2022/06/11 06:44:29;;;;;;;4.75;2.20;;;;;;;;;;4876599;29;20040;-62
2022/06/11 06:46:54;;;;;;;4.32;2.10;;;;;;;;;;4875158;29;20032;-63
2022/06/11 06:49:20;;;;;;;6.78;2.40;;;;;;;;;;4871835;29;20478;-62
2022/06/11 06:51:45;;;;;;;6.10;2.38;;;;;;;;;;4877443;29;20036;-62
2022/06/11 06:54:11;;;;;;;5.38;2.40;;;;;;;;;;4878298;29;20041;-62
2022/06/11 06:56:36;;;;;;;5.90;2.03;;;;;;;;;;4856218;29;20056;-62
2022/06/11 06:59:03;;;;;;;3.85;2.08;;;;;;;;;;4862388;29;20500;-62
2022/06/11 07:01:29;;;;;;;7.28;2.10;;;;;;;;;;4874364;29;20077;-62
2022/06/11 07:03:55;;;;;;;7.18;2.40;;;;;;;;;;4877524;29;20041;-62
2022/06/11 07:06:22;;;;;;;6.32;2.55;;;;;;;;;;4874650;29;20040;-63
2022/06/11 07:08:52;;;;;;;4.50;2.70;;;;;;;;;;4877303;29;20514;-62
2022/06/11 07:11:18;;;;;;;7.15;2.65;;;;;;;;;;4877217;29;20386;-62
2022/06/11 07:13:43;;;;;;;6.43;2.72;;;;;;;;;;4875669;29;20486;-62
2022/06/11 07:16:09;;;;;;;5.93;2.80;;;;;;;;;;4877062;29;20041;-62
2022/06/11 07:18:44;;;;;;;5.05;2.78;;;;;;;;;;4874323;29;20041;-62
2022/06/11 07:21:14;;;;;;;8.52;2.92;;;;;;;;;;4877790;29;20092;-62
2022/06/11 07:23:44;;;;;;;4.50;2.58;;;;;;;;;;4875296;29;20037;-62
2022/06/11 07:26:19;;;;;;;6.60;2.63;;;;;;;;;;4877673;29;20490;-62
2022/06/11 07:28:58;;;;;;;6.78;3.00;;;;;;;;;;4858925;29;20207;-63
2022/06/11 07:31:25;;;;;;;6.63;2.70;;;;;;;;;;4874689;29;20137;-62
2022/06/11 07:33:50;;;;;;;5.63;2.67;;;;;;;;;;4872668;29;20041;-62
2022/06/11 07:36:17;;;;;;;5.88;2.80;;;;;;;;;;4876192;29;20051;-62
2022/06/11 07:38:42;;;;;;;5.70;3.03;;;;;;;;;;4868365;29;20037;-62
2022/06/11 07:41:08;;;;;;;5.25;2.83;;;;;;;;;;4876931;29;20037;-65
2022/06/11 07:43:33;;;;;;;5.53;2.80;;;;;;;;;;4875313;29;20047;-63
2022/06/11 07:45:59;;;;;;;5.65;2.67;;;;;;;;;;4876408;29;20056;-62
2022/06/11 07:48:24;;;;;;;4.75;2.92;;;;;;;;;;4874845;29;20483;-63
2022/06/11 07:50:51;;;;;;;6.55;3.00;;;;;;;;;;4876381;29;20406;-62
2022/06/11 07:53:21;;;;;;;7.72;3.47;;;;;;;;;;4860845;29;20056;-62
2022/06/11 07:55:49;;;;;;;6.57;3.40;;;;;;;;;;4876701;29;20116;-63
2022/06/11 07:58:16;;;;;;;9.63;3.65;;;;;;;;;;4877316;29;20093;-63
2022/06/11 08:00:45;;;;;;;6.43;3.33;;;;;;;;;;4876847;29;20047;-62
2022/06/11 08:03:11;;;;;;;5.82;3.42;;;;;;;;;;4879754;29;20037;-62
2022/06/11 08:05:37;;;;;;;6.50;3.45;;;;;;;;;;4878020;29;20308;-63
2022/06/11 08:08:05;;;;;;;7.72;3.33;;;;;;;;;;4880323;29;20104;-63
2022/06/11 08:10:32;;;;;;;7.72;2.90;;;;;;;;;;4880213;29;20220;-63
2022/06/11 08:12:57;;;;;;;11.90;3.35;;;;;;;;;;4878614;29;20144;-63
2022/06/11 08:15:23;;;;;;;6.57;3.20;;;;;;;;;;4858465;29;20065;-64
2022/06/11 08:17:48;;;;;;;6.03;3.20;;;;;;;;;;4875735;29;20033;-63
2022/06/11 08:20:18;;;;;;;8.32;3.80;;;;;;;;;;4879824;29;20048;-63
2022/06/11 08:22:44;;;;;;;5.63;3.08;;;;;;;;;;4879683;29;20522;-64
2022/06/11 08:25:09;;;;;;;7.32;3.65;;;;;;;;;;4877100;29;20113;-63
2022/06/11 08:27:35;;;;;;;6.45;3.35;;;;;;;;;;4864666;29;20080;-63
2022/06/11 08:30:00;;;;;;;6.50;3.17;;;;;;;;;;4868771;29;20035;-63
2022/06/11 08:32:26;;;;;;;5.53;3.20;;;;;;;;;;4869624;29;20076;-63
2022/06/11 08:34:51;;;;;;;7.20;2.95;;;;;;;;;;4863184;29;20041;-62
2022/06/11 08:37:17;;;;;;;8.88;2.92;;;;;;;;;;4878390;29;20037;-62
2022/06/11 08:39:46;;;;;;;5.22;2.65;;;;;;;;;;4878433;29;20048;-64
2022/06/11 08:42:35;;;;;;;6.47;2.45;;;;;;;;;;4879390;29;20092;-64
2022/06/11 08:45:12;;;;;;;4.45;2.50;;;;;;;;;;4872781;29;20077;-63
2022/06/11 08:47:43;;;;;;;4.50;2.78;;;;;;;;;;4878473;29;20033;-63
2022/06/11 08:50:14;;;;;;;5.50;2.88;;;;;;;;;;4878748;29;20108;-63
2022/06/11 08:52:39;;;;;;;;;;;;;;;;;;4880018;29;20505;-63
2022/06/11 08:55:05;;;;;;;8.85;2.20;;;;;;;;;;4878711;29;19916;-62
2022/06/11 08:58:01;;;;;;;5.00;2.30;;;;;;;;;;4862691;29;20029;-63
2022/06/11 09:00:47;;;;;;;8.55;2.67;;;;;;;;;;4878003;29;20045;-62
2022/06/11 09:03:21;;;;;;;4.20;2.05;;;;;;;;;;4860542;29;20093;-62
2022/06/11 09:06:16;;;;;;;5.68;2.10;;;;;;;;;;4878042;29;20486;-62
2022/06/11 09:08:50;;;;;;;6.28;2.33;;;;;;;;;;4877880;29;20116;-62
2022/06/11 09:11:37;;;;;;;4.72;2.33;;;;;;;;;;4880077;29;20159;-62
2022/06/11 09:14:41;;;;;;;6.18;2.35;;;;;;;;;;4848541;29;20044;-63
2022/06/11 09:17:40;;;;;;;4.35;2.28;;;;;;;;;;4864882;29;20487;-63
2022/06/11 09:20:33;;;;;;;6.32;2.70;;;;;;;;;;4871443;29;20051;-62
2022/06/11 09:23:02;;;;;;;5.35;2.72;;;;;;;;;;4879770;29;20025;-62
2022/06/11 09:25:40;;;;;;;6.55;2.60;;;;;;;;;;4878033;29;20037;-62
2022/06/11 09:28:14;;;;;;;6.03;2.85;;;;;;;;;;4879502;29;20037;-62
2022/06/11 09:30:43;;;;;;;7.63;2.75;;;;;;;;;;4878851;29;20092;-62
2022/06/11 09:33:23;;;;;;;7.55;3.00;;;;;;;;;;4878382;29;21442;-62
2022/06/11 09:35:57;;;;;;;6.25;3.00;;;;;;;;;;4879235;29;20033;-62
2022/06/11 09:38:54;;;;;;;6.28;3.10;;;;;;;;;;4879139;29;20033;-62
2022/06/11 09:41:47;;;;;;;8.10;3.33;;;;;;;;;;4879513;29;20111;-62
2022/06/11 09:44:44;;;;;;;7.20;2.90;;;;;;;;;;4877456;29;20129;-63
2022/06/11 09:47:19;;;;;;;6.32;2.80;;;;;;;;;;4879130;29;20097;-62
2022/06/11 09:50:15;;;;;;;8.55;2.97;;;;;;;;;;4877361;29;20495;-62
2022/06/11 09:53:25;;;;;;;6.28;2.60;;;;;;;;;;4877183;29;20112;-62
2022/06/11 09:56:08;;;;;;;7.30;3.03;;;;;;;;;;4832853;29;20051;-68
2022/06/11 09:59:07;;;;;;;10.38;3.15;;;;;;;;;;4865138;29;20482;-69
2022/06/11 10:01:55;;;;;;;7.25;2.80;;;;;;;;;;4877360;29;20101;-70
2022/06/11 10:04:34;;;;;;;9.50;2.65;;;;;;;;;;4841317;29;20053;-69
2022/06/11 10:07:06;;;;;;;7.63;2.60;;;;;;;;;;4877445;29;20504;-70
2022/06/11 10:09:37;;;;;;;10.70;2.15;;;;;;;;;;4877460;29;20124;-69
2022/06/11 10:12:28;;;;;;;8.48;2.83;;;;;;;;;;4878011;29;20036;-70
2022/06/11 10:15:11;;;;;;;5.80;2.40;;;;;;;;;;4853560;29;20402;-70
2022/06/11 10:17:55;;;;;;;10.23;2.67;;;;;;;;;;4871602;29;20048;-69
2022/06/11 10:20:35;;;;;;;7.68;2.50;;;;;;;;;;4876984;29;20482;-70
2022/06/11 10:23:13;;;;;;;10.10;2.80;;;;;;;;;;4878130;29;20041;-70
2022/06/11 10:25:52;;;;;;;8.70;2.83;;;;;;;;;;4874795;29;20538;-69
2022/06/11 10:28:28;;;;;;;6.53;2.50;;;;;;;;;;4875457;29;20051;-68
2022/06/11 10:30:57;;;;;;;6.53;2.63;;;;;;;;;;4876274;29;20453;-70
2022/06/11 10:33:46;;;;;;;7.88;2.60;;;;;;;;;;4877304;29;20036;-71
2022/06/11 10:36:22;;;;;;;7.38;2.63;;;;;;;;;;4861520;29;20505;-70
2022/06/11 10:38:54;;;;;;;7.18;2.65;;;;;;;;;;4859159;29;20041;-69
2022/06/11 10:41:41;;;;;;;7.13;2.55;;;;;;;;;;4875129;29;20071;-70
2022/06/11 10:44:43;;;;;;;9.07;3.08;;;;;;;;;;4859616;29;20079;-70
2022/06/11 10:47:23;;;;;;;5.15;2.90;;;;;;;;;;4876296;29;20053;-70
2022/06/11 10:50:09;;;;;;;7.38;3.10;;;;;;;;;;4876127;29;20100;-70
2022/06/11 10:52:48;;;;;;;9.38;3.13;;;;;;;;;;4859112;29;20435;-69
2022/06/11 10:55:23;;;;;;;10.85;3.13;;;;;;;;;;4861984;29;20049;-70
2022/06/11 10:57:51;;;;;;;6.93;2.92;;;;;;;;;;4877389;29;20037;-69
2022/06/11 11:00:23;;;;;;;7.70;3.10;;;;;;;;;;4876561;29;20033;-69
2022/06/11 11:02:50;;;;;;;7.95;3.30;;;;;;;;;;4860425;29;20036;-69
2022/06/11 11:05:18;;;;;;;6.07;3.00;;;;;;;;;;4875970;29;20427;-69
2022/06/11 11:08:01;;;;;;;8.18;3.20;;;;;;;;;;4876034;29;20031;-69
2022/06/11 11:10:42;;;;;;;7.03;3.08;;;;;;;;;;4859190;29;20059;-69
2022/06/11 11:13:27;;;;;;;7.40;3.17;;;;;;;;;;4878410;29;20053;-69
2022/06/11 11:16:19;;;;;;;8.80;2.92;;;;;;;;;;4875878;29;20037;-69
2022/06/11 11:18:56;;;;;;;7.47;3.20;;;;;;;;;;4877077;29;20446;-69
2022/06/11 11:21:31;;;;;;;8.18;3.20;;;;;;;;;;4875608;29;20044;-70
2022/06/11 11:24:18;;;;;;;5.88;3.20;;;;;;;;;;4860365;29;20415;-70
2022/06/11 11:27:10;;;;;;;6.25;3.10;;;;;;;;;;4875774;29;20056;-69
2022/06/11 11:29:40;;;;;;;8.70;3.53;;;;;;;;;;4874301;29;20037;-68
2022/06/11 11:32:25;;;;;;;7.40;3.50;;;;;;;;;;4877724;29;20033;-69
2022/06/11 11:34:51;;;;;;;7.20;3.28;;;;;;;;;;4875868;29;20629;-70
2022/06/11 11:37:16;;;;;;;7.47;3.72;;;;;;;;;;4880353;29;20038;-70
2022/06/11 11:39:57;;;;;;;5.80;3.40;;;;;;;;;;4879937;29;20037;-70
2022/06/11 11:42:32;;;;;;;6.10;3.38;;;;;;;;;;4880660;29;20033;-70
2022/06/11 11:44:57;;;;;;;7.68;3.40;;;;;;;;;;4879857;29;20041;-70
2022/06/11 11:47:39;;;;;;;6.65;3.50;;;;;;;;;;4881613;29;20037;-69
2022/06/11 11:50:19;;;;;;;7.60;3.20;;;;;;;;;;4879883;29;20112;-70
2022/06/11 11:52:58;;;;;;;5.65;3.10;;;;;;;;;;4879746;29;20061;-64
2022/06/11 11:55:33;;;;;;;6.00;2.97;;;;;;;;;;4877299;29;20486;-63
2022/06/11 11:58:02;;;;;;;7.25;2.92;;;;;;;;;;4880963;29;20486;-63
2022/06/11 12:00:40;;;;;;;5.78;2.80;;;;;;;;;;4863232;29;20041;-63
2022/06/11 12:03:14;;;;;;;5.38;2.80;;;;;;;;;;4880489;29;20061;-63
2022/06/11 12:05:49;;;;;;;6.57;2.90;;;;;;;;;;4879384;29;20059;-64
2022/06/11 12:08:29;;;;;;;6.68;2.97;;;;;;;;;;4879273;29;20044;-63
2022/06/11 12:11:00;;;;;;;5.10;2.60;;;;;;;;;;4878931;29;20552;-62
2022/06/11 12:13:30;;;;;;;5.30;3.10;;;;;;;;;;4863774;29;20389;-64
2022/06/11 12:16:01;;;;;;;6.13;2.80;;;;;;;;;;4880328;29;20315;-63
2022/06/11 12:18:31;;;;;;;4.40;2.42;;;;;;;;;;4863424;29;20047;-63
2022/06/11 12:21:10;;;;;;;4.03;2.47;;;;;;;;;;4859468;29;20068;-63
2022/06/11 12:23:42;;;;;;;5.40;2.30;;;;;;;;;;4863669;29;20051;-62
2022/06/11 12:26:18;;;;;;;6.85;2.50;;;;;;;;;;4880212;29;20135;-62
2022/06/11 12:28:46;;;;;;;6.07;2.70;;;;;;;;;;4879668;29;20075;-62
2022/06/11 12:31:12;;;;;;;5.35;2.47;;;;;;;;;;4879680;29;20116;-63
2022/06/11 12:33:43;;;;;;;5.93;2.72;;;;;;;;;;4880015;29;20117;-62
2022/06/11 12:36:24;;;;;;;6.20;2.67;;;;;;;;;;4879425;29;20041;-62
2022/06/11 12:38:58;;;;;;;5.53;2.50;;;;;;;;;;4879867;29;20080;-62
2022/06/11 12:41:45;;;;;;;4.40;2.33;;;;;;;;;;4879125;29;20037;-61
2022/06/11 12:44:48;;;;;;;6.25;2.97;;;;;;;;;;4879753;29;20076;-68
2022/06/11 12:47:45;;;;;;;6.95;2.70;;;;;;;;;;4879292;29;20032;-70
2022/06/11 12:50:53;;;;;;;5.20;2.45;;;;;;;;;;4879017;29;20037;-69
2022/06/11 12:53:34;;;;;;;5.60;2.35;;;;;;;;;;4870181;29;20126;-68
2022/06/11 12:56:25;;;;;;;7.60;2.53;;;;;;;;;;4879917;29;20074;-69
2022/06/11 12:59:21;;;;;;;6.53;2.80;;;;;;;;;;4877994;29;20049;-67
2022/06/11 13:01:49;;;;;;;6.70;2.67;;;;;;;;;;4879783;29;20517;-67
2022/06/11 13:04:35;;;;;;;4.78;2.30;;;;;;;;;;4879133;29;20041;-68
2022/06/11 13:07:42;;;;;;;7.28;2.40;;;;;;;;;;4880111;29;20033;-67
2022/06/11 13:10:39;;;;;;;8.60;2.60;;;;;;;;;;4846182;29;20051;-68
2022/06/11 13:13:22;;;;;;;5.35;2.40;;;;;;;;;;4863550;29;20395;-66
2022/06/11 13:16:11;;;;;;;5.85;2.40;;;;;;;;;;4860402;29;20033;-67
2022/06/11 13:18:51;;;;;;;4.97;2.50;;;;;;;;;;4863632;29;20044;-66
2022/06/11 13:21:38;;;;;;;4.63;2.20;;;;;;;;;;4879792;29;20116;-68
2022/06/11 13:24:08;;;;;;;5.68;2.60;;;;;;;;;;4878833;29;20115;-68
2022/06/11 13:26:45;;;;;;;4.28;2.15;;;;;;;;;;4878898;29;20497;-68
2022/06/11 13:29:50;;;;;;;7.97;1.90;;;;;;;;;;4844598;29;20120;-69
2022/06/11 13:32:31;;;;;;;6.07;2.60;;;;;;;;;;4859931;29;20124;-68
2022/06/11 13:35:06;;;;;;;3.47;2.00;;;;;;;;;;4860438;29;20140;-69
2022/06/11 13:37:44;;;;;;;4.47;2.15;;;;;;;;;;4872888;29;20037;-68
2022/06/11 13:40:34;;;;;;;7.72;2.20;;;;;;;;;;4877159;29;20072;-68
2022/06/11 13:43:21;;;;;;;4.35;2.00;;;;;;;;;;4873795;29;20033;-68
2022/06/11 13:45:57;;;;;;;3.25;1.77;;;;;;;;;;4876914;29;20484;-68
2022/06/11 13:48:28;;;;;;;6.10;2.00;;;;;;;;;;4879148;29;20481;-67
2022/06/11 13:51:21;;;;;;;6.38;2.28;;;;;;;;;;4878461;29;20189;-67
2022/06/11 13:57:12;;;;;;;3.90;1.80;;;;;;;;;;4876320;29;20195;-66
2022/06/11 13:59:50;;;;;;;5.50;2.15;;;;;;;;;;4876651;29;20520;-67
2022/06/11 14:02:21;;;;;;;3.85;1.88;;;;;;;;;;4878150;29;20494;-67
2022/06/11 14:04:58;;;;;;;6.13;2.30;;;;;;;;;;4876637;29;20033;-67
2022/06/11 14:07:27;;;;;;;3.70;1.80;;;;;;;;;;4860651;29;20078;-67
2022/06/11 14:10:32;;;;;;;4.18;1.70;;;;;;;;;;4868330;29;20055;-67
2022/06/11 14:13:08;;;;;;;5.18;1.80;;;;;;;;;;4820643;29;20034;-68
2022/06/11 14:15:51;;;;;;;6.47;1.90;;;;;;;;;;4818770;29;20043;-66
2022/06/11 14:18:20;;;;;;;3.75;1.80;;;;;;;;;;4820673;29;20111;-67
2022/06/11 14:20:49;;;;;;;4.05;1.70;;;;;;;;;;4818819;29;20488;-67
2022/06/11 14:23:15;;;;;;;6.18;1.67;;;;;;;;;;4820251;29;20221;-67
2022/06/11 14:25:45;;;;;;;4.35;1.80;;;;;;;;;;4820794;29;20484;-66
2022/06/11 14:28:13;;;;;;;;;;;;;;;;;;4809274;29;20123;-67
2022/06/11 14:30:40;;;;;;;2.85;1.50;;;;;;;;;;4802923;29;20004;-67
2022/06/11 14:33:12;;;;;;;5.90;1.83;;;;;;;;;;4817455;29;20047;-67
2022/06/11 14:35:52;;;;;;;4.30;1.60;;;;;;;;;;4821259;29;20067;-67
2022/06/11 14:38:20;;;;;;;3.88;1.58;;;;;;;;;;4817706;29;20050;-67
2022/06/11 14:40:47;;;;;;;3.13;1.70;;;;;;;;;;4818742;29;20065;-67
2022/06/11 14:43:19;;;;;;;3.90;1.75;;;;;;;;;;4837273;29;20204;-70
2022/06/11 14:45:45;;;;;;;4.68;1.60;;;;;;;;;;4874886;29;20033;-68
2022/06/11 14:48:39;;;;;;;3.67;1.55;;;;;;;;;;4876616;29;20044;-69
2022/06/11 14:51:04;;;;;;;4.68;1.60;;;;;;;;;;4864613;29;20075;-68
2022/06/11 14:53:37;;;;;;;2.80;1.40;;;;;;;;;;4875786;29;20073;-69
2022/06/11 14:56:32;;;;;;;2.72;1.40;;;;;;;;;;4876031;29;20036;-70
2022/06/11 14:59:04;;;;;;;3.22;1.35;;;;;;;;;;4875667;29;20033;-71
2022/06/11 15:01:57;;;;;;;7.43;1.98;;;;;;;;;;4876737;29;20129;-68
2022/06/11 15:04:47;;;;;;;4.07;2.00;;;;;;;;;;4878339;29;20081;-67
2022/06/11 15:07:34;;;;;;;5.00;1.50;;;;;;;;;;4875661;29;20040;-67
2022/06/11 15:10:20;;;;;;;2.50;1.20;;;;;;;;;;4875038;29;20048;-68
2022/06/11 15:12:51;;;;;;;5.78;1.73;;;;;;;;;;4876236;29;20502;-68
2022/06/11 15:15:49;;;;;;;4.43;1.50;;;;;;;;;;4868829;29;20048;-68
2022/06/11 15:18:28;;;;;;;4.10;1.17;;;;;;;;;;4846972;29;20152;-68
2022/06/11 15:20:58;;;;;;;5.67;1.43;;;;;;;;;;4868056;29;20128;-67
2022/06/11 15:23:31;;;;;;;6.13;1.67;;;;;;;;;;4866305;29;20117;-69
2022/06/11 15:26:00;;;;;;;4.32;1.80;;;;;;;;;;4859421;29;20058;-69